Time;durP1;ratioP1;P1;durP2;ratioP2;P2;SDS_P1;SDS_P2;PMS_P1;PMS_P2;Temp;Humidity;BMP_temperature;BMP_pressure;BME280_temperature;BME280_humidity;BME280_pressure;Samples;Min_cycle;Max_cycle;Signal;HPM_P1;HPM_P2
2024/03/05 00:00:09;;;;;;;100.33;44.60;;;;;;;;;;4998881;28;20490;-85
2024/03/05 00:02:37;;;;;;;97.23;45.03;;;;;;;;;;5006614;28;20562;-83
2024/03/05 00:05:06;;;;;;;90.03;45.40;;;;;;;;;;4998124;28;21064;-83
2024/03/05 00:07:35;;;;;;;98.10;45.60;;;;;;;;;;5006739;28;20431;-85
2024/03/05 00:10:02;;;;;;;106.97;46.67;;;;;;;;;;4999491;28;20420;-85
2024/03/05 00:12:29;;;;;;;90.43;44.40;;;;;;;;;;4998422;28;20490;-85
2024/03/05 00:14:56;;;;;;;94.67;47.57;;;;;;;;;;4998903;28;20284;-85
2024/03/05 00:17:23;;;;;;;90.03;47.20;;;;;;;;;;4998422;28;20488;-84
2024/03/05 00:19:50;;;;;;;99.00;43.70;;;;;;;;;;4998739;28;20445;-85
2024/03/05 00:22:17;;;;;;;95.10;46.03;;;;;;;;;;4998823;28;20799;-85
2024/03/05 00:24:50;;;;;;;94.37;47.17;;;;;;;;;;4998748;28;20469;-83
2024/03/05 00:27:17;;;;;;;90.20;44.83;;;;;;;;;;4998922;28;20449;-84
2024/03/05 00:29:44;;;;;;;120.77;47.50;;;;;;;;;;4999331;28;20416;-86
2024/03/05 00:32:11;;;;;;;113.77;46.63;;;;;;;;;;4997820;28;20453;-83
2024/03/05 00:34:38;;;;;;;92.40;44.30;;;;;;;;;;5000850;28;20473;-84
2024/03/05 00:37:05;;;;;;;99.27;44.83;;;;;;;;;;5014145;28;20519;-85
2024/03/05 00:39:32;;;;;;;112.35;48.33;;;;;;;;;;4998318;28;20900;-84
2024/03/05 00:42:01;;;;;;;106.47;45.87;;;;;;;;;;4997767;28;20210;-85
2024/03/05 00:44:28;;;;;;;106.95;47.17;;;;;;;;;;5004299;28;20572;-85
2024/03/05 00:46:55;;;;;;;104.10;45.50;;;;;;;;;;4998648;28;20221;-85
2024/03/05 00:49:23;;;;;;;95.23;45.63;;;;;;;;;;4998754;28;20461;-85
2024/03/05 00:51:50;;;;;;;89.60;44.07;;;;;;;;;;4997966;28;20480;-83
2024/03/05 00:54:17;;;;;;;94.07;47.53;;;;;;;;;;4998728;28;20481;-84
2024/03/05 00:56:44;;;;;;;89.47;44.50;;;;;;;;;;5030301;28;20435;-83
2024/03/05 00:59:12;;;;;;;105.20;48.60;;;;;;;;;;5037494;28;20451;-84
2024/03/05 01:01:39;;;;;;;118.50;46.73;;;;;;;;;;5037567;28;20426;-84
2024/03/05 01:04:07;;;;;;;87.83;44.83;;;;;;;;;;5037708;28;20557;-85
2024/03/05 01:06:34;;;;;;;121.43;49.70;;;;;;;;;;5036220;28;20426;-85
2024/03/05 01:09:02;;;;;;;114.43;47.50;;;;;;;;;;5003034;28;20456;-85
2024/03/05 01:11:30;;;;;;;101.47;44.10;;;;;;;;;;5021058;28;20452;-85
2024/03/05 01:13:58;;;;;;;99.20;45.20;;;;;;;;;;5021485;28;20465;-83
2024/03/05 01:16:26;;;;;;;89.07;47.37;;;;;;;;;;5021275;28;20440;-84
2024/03/05 01:18:53;;;;;;;101.93;45.50;;;;;;;;;;5020954;28;20456;-84
2024/03/05 01:21:21;;;;;;;93.03;47.80;;;;;;;;;;5021080;28;20431;-84
2024/03/05 01:23:48;;;;;;;106.67;45.17;;;;;;;;;;5021012;28;20495;-86
2024/03/05 01:26:15;;;;;;;95.73;46.00;;;;;;;;;;5021137;28;20441;-83
2024/03/05 01:28:42;;;;;;;102.33;45.43;;;;;;;;;;5020852;28;20867;-85
2024/03/05 01:31:09;;;;;;;107.93;47.70;;;;;;;;;;5021266;28;20423;-84
2024/03/05 01:33:40;;;;;;;114.77;47.87;;;;;;;;;;5020812;28;20502;-84
2024/03/05 01:36:10;;;;;;;97.03;44.90;;;;;;;;;;5021009;28;20448;-84
2024/03/05 01:38:37;;;;;;;97.13;46.10;;;;;;;;;;5012318;28;20484;-83
2024/03/05 01:41:04;;;;;;;105.53;45.13;;;;;;;;;;5000108;28;20454;-85
2024/03/05 01:43:31;;;;;;;91.40;45.00;;;;;;;;;;5001590;28;20528;-83
2024/03/05 01:45:58;;;;;;;83.87;44.63;;;;;;;;;;5001062;28;20432;-84
2024/03/05 01:48:26;;;;;;;88.57;45.70;;;;;;;;;;5001088;28;20460;-84
2024/03/05 01:50:55;;;;;;;102.13;46.30;;;;;;;;;;5000558;28;21051;-85
2024/03/05 01:53:23;;;;;;;113.13;46.40;;;;;;;;;;5003094;28;20474;-84
2024/03/05 01:55:53;;;;;;;106.40;47.30;;;;;;;;;;5002279;28;20477;-85
2024/03/05 01:58:20;;;;;;;104.60;45.17;;;;;;;;;;5000975;28;20431;-84
2024/03/05 02:00:47;;;;;;;96.18;44.72;;;;;;;;;;5001025;28;20500;-84
2024/03/05 02:03:14;;;;;;;99.30;46.43;;;;;;;;;;5007681;28;20601;-86
2024/03/05 02:05:43;;;;;;;93.43;44.22;;;;;;;;;;5020813;28;20464;-85
2024/03/05 02:08:12;;;;;;;94.37;45.93;;;;;;;;;;5020760;28;20209;-84
2024/03/05 02:10:39;;;;;;;93.70;45.60;;;;;;;;;;5019867;28;20490;-85
2024/03/05 02:13:09;;;;;;;104.90;47.87;;;;;;;;;;5020519;28;20452;-84
2024/03/05 02:15:37;;;;;;;111.27;45.63;;;;;;;;;;5020020;28;20427;-85
2024/03/05 02:18:04;;;;;;;83.20;43.20;;;;;;;;;;5020393;28;20892;-84
2024/03/05 02:20:31;;;;;;;86.87;42.50;;;;;;;;;;5019690;28;20427;-85
2024/03/05 02:22:59;;;;;;;84.03;43.80;;;;;;;;;;5020204;28;20500;-85
2024/03/05 02:25:26;;;;;;;88.93;44.80;;;;;;;;;;5013991;28;20850;-85
2024/03/05 02:27:54;;;;;;;87.23;43.17;;;;;;;;;;5000775;28;20413;-84
2024/03/05 02:30:22;;;;;;;92.27;43.37;;;;;;;;;;5000200;28;20449;-86
2024/03/05 02:32:49;;;;;;;95.40;44.60;;;;;;;;;;4999769;28;20909;-85
2024/03/05 02:35:16;;;;;;;97.90;45.00;;;;;;;;;;5000440;28;20440;-85
2024/03/05 02:37:43;;;;;;;89.07;44.80;;;;;;;;;;5000054;28;20426;-84
2024/03/05 02:40:13;;;;;;;80.30;41.77;;;;;;;;;;5000400;28;20464;-85
2024/03/05 02:42:40;;;;;;;78.33;42.27;;;;;;;;;;4998892;28;20451;-83
2024/03/05 02:45:08;;;;;;;81.13;43.80;;;;;;;;;;5000219;28;20492;-85
2024/03/05 02:47:36;;;;;;;75.67;41.27;;;;;;;;;;5000491;28;20453;-85
2024/03/05 02:50:04;;;;;;;77.07;40.37;;;;;;;;;;5000399;28;20445;-84
2024/03/05 02:52:31;;;;;;;84.27;42.10;;;;;;;;;;4998906;28;21046;-86
2024/03/05 02:54:58;;;;;;;87.43;42.93;;;;;;;;;;5000067;28;20459;-84
2024/03/05 02:57:28;;;;;;;81.30;45.57;;;;;;;;;;4999913;28;20481;-84
2024/03/05 02:59:55;;;;;;;78.63;43.05;;;;;;;;;;5000240;28;20428;-84
2024/03/05 03:02:22;;;;;;;105.80;43.20;;;;;;;;;;5000039;28;20210;-85
2024/03/05 03:04:51;;;;;;;79.83;44.53;;;;;;;;;;5000513;28;20497;-84
2024/03/05 03:07:18;;;;;;;89.47;42.37;;;;;;;;;;4999836;28;20462;-85
2024/03/05 03:09:46;;;;;;;106.97;46.07;;;;;;;;;;5000218;28;20717;-84
2024/03/05 03:12:13;;;;;;;93.07;46.37;;;;;;;;;;4998929;28;20452;-86
2024/03/05 03:14:44;;;;;;;96.00;45.77;;;;;;;;;;4999879;28;20520;-83
2024/03/05 03:17:11;;;;;;;90.07;45.47;;;;;;;;;;4999887;28;20414;-85
2024/03/05 03:19:38;;;;;;;101.27;45.47;;;;;;;;;;5000160;28;20880;-85
2024/03/05 03:22:06;;;;;;;98.47;47.47;;;;;;;;;;5005255;28;20456;-85
2024/03/05 03:24:33;;;;;;;102.50;46.33;;;;;;;;;;5006213;28;20531;-86
2024/03/05 03:27:00;;;;;;;108.50;45.90;;;;;;;;;;4999792;28;20473;-85
2024/03/05 03:29:27;;;;;;;101.47;46.47;;;;;;;;;;4999651;28;20428;-85
2024/03/05 03:31:56;;;;;;;95.90;43.88;;;;;;;;;;4998248;28;20412;-84
2024/03/05 03:34:23;;;;;;;104.93;46.40;;;;;;;;;;4999256;28;20898;-86
2024/03/05 03:36:50;;;;;;;94.43;42.83;;;;;;;;;;4999755;28;20483;-84
2024/03/05 03:39:23;;;;;;;95.57;44.30;;;;;;;;;;4998922;28;20453;-85
2024/03/05 03:41:53;;;;;;;74.23;42.80;;;;;;;;;;4998471;28;20846;-85
2024/03/05 03:44:20;;;;;;;80.13;40.40;;;;;;;;;;4999566;28;21017;-85
2024/03/05 03:46:48;;;;;;;80.70;40.90;;;;;;;;;;4999359;28;20458;-84
2024/03/05 03:49:18;;;;;;;77.20;41.40;;;;;;;;;;4999089;28;20781;-84
2024/03/05 03:51:45;;;;;;;79.40;42.43;;;;;;;;;;4999453;28;20452;-85
2024/03/05 03:54:12;;;;;;;75.23;42.30;;;;;;;;;;4999090;28;20627;-84
2024/03/05 03:56:40;;;;;;;87.47;43.40;;;;;;;;;;4999467;28;20420;-85
2024/03/05 03:59:07;;;;;;;96.57;43.97;;;;;;;;;;4998851;28;20500;-86
2024/03/05 04:01:34;;;;;;;83.87;43.77;;;;;;;;;;4998837;28;20461;-85
2024/03/05 04:04:02;;;;;;;92.10;43.57;;;;;;;;;;5009522;28;20467;-83
2024/03/05 04:06:31;;;;;;;83.30;44.17;;;;;;;;;;5001381;28;20472;-84
2024/03/05 04:08:58;;;;;;;94.07;41.23;;;;;;;;;;4999401;28;20479;-85
2024/03/05 04:11:25;;;;;;;92.07;43.30;;;;;;;;;;4998530;28;20448;-85
2024/03/05 04:13:52;;;;;;;107.17;47.37;;;;;;;;;;4999531;28;20507;-83
2024/03/05 04:16:19;;;;;;;86.33;45.00;;;;;;;;;;4999686;28;20448;-85
2024/03/05 04:18:46;;;;;;;91.40;47.23;;;;;;;;;;4999073;28;20896;-85
2024/03/05 04:21:13;;;;;;;116.50;48.07;;;;;;;;;;4998379;28;20453;-86
2024/03/05 04:23:42;;;;;;;91.30;44.90;;;;;;;;;;5006362;28;20488;-85
2024/03/05 04:26:13;;;;;;;113.00;48.47;;;;;;;;;;5018800;28;20537;-85
2024/03/05 04:28:48;;;;;;;93.70;44.40;;;;;;;;;;5018875;28;20244;-84
2024/03/05 04:31:16;;;;;;;110.20;46.07;;;;;;;;;;5017936;28;20459;-85
2024/03/05 04:33:43;;;;;;;126.13;50.07;;;;;;;;;;5018561;28;20465;-83
2024/03/05 04:36:11;;;;;;;103.43;46.97;;;;;;;;;;5018004;28;20487;-84
2024/03/05 04:38:38;;;;;;;101.83;48.30;;;;;;;;;;5018429;28;20484;-84
2024/03/05 04:41:07;;;;;;;110.40;47.42;;;;;;;;;;5017923;28;20415;-84
2024/03/05 04:43:34;;;;;;;145.97;52.17;;;;;;;;;;5018890;28;20234;-85
2024/03/05 04:46:01;;;;;;;155.68;52.13;;;;;;;;;;5022480;28;20926;-85
2024/03/05 04:48:28;;;;;;;125.50;50.42;;;;;;;;;;5022651;28;20581;-83
2024/03/05 04:50:55;;;;;;;132.63;55.17;;;;;;;;;;5021552;28;20198;-84
2024/03/05 04:53:23;;;;;;;128.40;52.63;;;;;;;;;;5022054;28;20476;-85
2024/03/05 04:55:50;;;;;;;119.00;51.30;;;;;;;;;;5022003;28;20452;-83
2024/03/05 04:58:18;;;;;;;118.70;49.70;;;;;;;;;;5022144;28;20456;-86
2024/03/05 05:00:45;;;;;;;123.80;52.00;;;;;;;;;;5021138;28;20899;-83
2024/03/05 05:03:12;;;;;;;120.97;48.23;;;;;;;;;;5020866;28;20582;-83
2024/03/05 05:05:39;;;;;;;119.07;49.47;;;;;;;;;;5021446;28;20483;-85
2024/03/05 05:08:07;;;;;;;103.33;43.67;;;;;;;;;;5021673;28;20798;-85
2024/03/05 05:10:34;;;;;;;113.87;49.57;;;;;;;;;;5020846;28;20478;-84
2024/03/05 05:13:03;;;;;;;127.37;48.50;;;;;;;;;;5021272;28;20455;-85
2024/03/05 05:15:31;;;;;;;117.53;48.03;;;;;;;;;;5021306;28;20495;-85
2024/03/05 05:17:58;;;;;;;123.87;45.57;;;;;;;;;;5021413;28;20440;-85
2024/03/05 05:20:27;;;;;;;123.47;48.50;;;;;;;;;;5020955;28;20458;-84
2024/03/05 05:22:54;;;;;;;109.33;50.03;;;;;;;;;;5020176;28;20516;-84
2024/03/05 05:25:21;;;;;;;160.30;53.60;;;;;;;;;;5020734;28;20455;-85
2024/03/05 05:27:49;;;;;;;143.73;54.40;;;;;;;;;;5021099;28;20464;-85
2024/03/05 05:30:17;;;;;;;145.83;54.20;;;;;;;;;;5021630;28;20469;-84
2024/03/05 05:32:46;;;;;;;117.80;48.43;;;;;;;;;;5020920;28;20416;-85
2024/03/05 05:35:13;;;;;;;134.90;51.73;;;;;;;;;;5021071;28;20786;-85
2024/03/05 05:37:40;;;;;;;109.23;47.50;;;;;;;;;;5021158;28;20503;-85
2024/03/05 05:40:10;;;;;;;187.87;59.17;;;;;;;;;;5021404;28;20448;-85
2024/03/05 05:42:37;;;;;;;152.67;53.50;;;;;;;;;;5021735;28;20488;-84
2024/03/05 05:45:08;;;;;;;107.40;51.27;;;;;;;;;;5013950;28;20860;-84
2024/03/05 05:47:35;;;;;;;107.83;49.97;;;;;;;;;;5020871;28;20433;-85
2024/03/05 05:50:17;;;;;;;106.50;49.53;;;;;;;;;;5021412;28;20467;-85
2024/03/05 05:52:44;;;;;;;145.17;50.07;;;;;;;;;;5020170;28;20445;-86
2024/03/05 05:55:12;;;;;;;148.00;51.53;;;;;;;;;;5019787;28;20476;-85
2024/03/05 05:57:39;;;;;;;121.77;50.77;;;;;;;;;;5022356;28;20460;-85
2024/03/05 06:00:12;;;;;;;123.03;49.77;;;;;;;;;;5021921;28;20452;-84
2024/03/05 06:02:39;;;;;;;118.60;49.42;;;;;;;;;;5017236;28;20552;-84
2024/03/05 06:05:09;;;;;;;116.37;49.80;;;;;;;;;;5002667;28;20594;-85
2024/03/05 06:07:36;;;;;;;100.23;48.50;;;;;;;;;;5002562;28;20617;-85
2024/03/05 06:10:04;;;;;;;116.80;48.07;;;;;;;;;;5000342;28;20959;-86
2024/03/05 06:12:32;;;;;;;94.73;43.30;;;;;;;;;;5000523;28;20445;-85
2024/03/05 06:14:59;;;;;;;113.80;47.30;;;;;;;;;;5000465;28;20444;-84
2024/03/05 06:17:26;;;;;;;130.93;50.20;;;;;;;;;;5013145;28;20428;-86
2024/03/05 06:19:53;;;;;;;135.00;48.90;;;;;;;;;;5020313;28;20441;-83
2024/03/05 06:22:21;;;;;;;134.83;54.37;;;;;;;;;;5006685;28;20441;-85
2024/03/05 06:24:48;;;;;;;129.73;51.67;;;;;;;;;;5000155;28;20559;-85
2024/03/05 06:27:16;;;;;;;110.07;48.70;;;;;;;;;;5000199;28;20210;-84
2024/03/05 06:29:44;;;;;;;128.90;47.33;;;;;;;;;;5000233;28;20443;-85
2024/03/05 06:32:11;;;;;;;106.82;45.53;;;;;;;;;;5008019;28;20761;-84
2024/03/05 06:34:38;;;;;;;96.60;46.65;;;;;;;;;;5019987;28;20303;-83
2024/03/05 06:37:06;;;;;;;100.83;45.80;;;;;;;;;;5019733;28;20209;-85
2024/03/05 06:39:41;;;;;;;113.60;48.22;;;;;;;;;;5004339;28;20480;-85
2024/03/05 06:42:10;;;;;;;81.47;41.85;;;;;;;;;;4999628;28;20387;-84
2024/03/05 06:44:37;;;;;;;88.80;44.72;;;;;;;;;;5000460;28;20338;-85
2024/03/05 06:47:04;;;;;;;87.83;43.50;;;;;;;;;;5000015;28;20602;-85
2024/03/05 06:49:38;;;;;;;87.73;44.67;;;;;;;;;;5000007;28;20517;-84
2024/03/05 06:57:33;;;;;;;93.97;48.30;;;;;;;;;;5006606;28;20503;-85
2024/03/05 07:00:00;;;;;;;91.90;46.23;;;;;;;;;;5011844;28;20205;-82
2024/03/05 07:02:30;;;;;;;108.27;48.07;;;;;;;;;;5010277;28;20819;-82
2024/03/05 07:04:57;;;;;;;105.83;49.07;;;;;;;;;;4997460;28;20493;-81
2024/03/05 07:07:24;;;;;;;113.63;49.20;;;;;;;;;;5004633;28;20899;-80
2024/03/05 07:09:52;;;;;;;95.60;43.37;;;;;;;;;;5016577;28;20652;-79
2024/03/05 07:12:20;;;;;;;86.00;44.47;;;;;;;;;;5015435;28;20460;-80
2024/03/05 07:14:50;;;;;;;91.93;44.55;;;;;;;;;;5017739;28;20507;-93
2024/03/05 07:17:17;;;;;;;108.20;47.37;;;;;;;;;;5017375;28;20220;-93
2024/03/05 07:19:44;;;;;;;100.85;46.72;;;;;;;;;;5017817;28;20529;-91
2024/03/05 07:22:11;;;;;;;100.70;48.67;;;;;;;;;;5005999;28;20230;-83
2024/03/05 07:24:38;;;;;;;97.27;46.17;;;;;;;;;;4997742;28;20265;-84
2024/03/05 07:27:07;;;;;;;92.30;46.38;;;;;;;;;;4997724;28;20432;-83
2024/03/05 07:29:34;;;;;;;70.17;42.10;;;;;;;;;;5002785;28;20197;-82
2024/03/05 07:32:02;;;;;;;73.95;40.83;;;;;;;;;;5005967;28;20442;-83
2024/03/05 07:34:29;;;;;;;70.95;42.15;;;;;;;;;;5008345;28;20325;-82
2024/03/05 07:36:56;;;;;;;67.07;40.73;;;;;;;;;;5008308;28;20209;-81
2024/03/05 07:39:24;;;;;;;82.63;45.20;;;;;;;;;;5008127;28;20456;-83
2024/03/05 07:41:51;;;;;;;78.70;44.13;;;;;;;;;;5010606;28;20924;-80
2024/03/05 07:44:26;;;;;;;78.95;41.65;;;;;;;;;;5016489;28;20431;-81
2024/03/05 07:46:53;;;;;;;95.20;47.40;;;;;;;;;;5014968;28;20693;-80
2024/03/05 07:49:20;;;;;;;88.97;46.13;;;;;;;;;;5015773;28;20513;-82
2024/03/05 07:51:47;;;;;;;87.90;44.20;;;;;;;;;;5015538;28;20852;-82
2024/03/05 07:54:14;;;;;;;78.97;42.93;;;;;;;;;;5015240;28;20530;-83
2024/03/05 07:56:41;;;;;;;91.85;44.05;;;;;;;;;;5015568;28;20633;-83
2024/03/05 07:59:08;;;;;;;85.37;44.43;;;;;;;;;;5015396;28;20205;-80
2024/03/05 08:01:37;;;;;;;78.22;42.72;;;;;;;;;;5014648;28;20986;-82
2024/03/05 08:04:04;;;;;;;79.30;44.22;;;;;;;;;;5013888;28;20704;-83
2024/03/05 08:06:31;;;;;;;81.70;45.60;;;;;;;;;;5015128;28;20251;-82
2024/03/05 08:08:58;;;;;;;93.90;45.93;;;;;;;;;;5015141;28;20186;-81
2024/03/05 08:11:25;;;;;;;79.78;44.40;;;;;;;;;;5014604;28;20495;-83
2024/03/05 08:13:52;;;;;;;87.07;45.43;;;;;;;;;;5014950;28;20229;-83
2024/03/05 08:16:19;;;;;;;80.82;42.65;;;;;;;;;;5015168;28;20422;-81
2024/03/05 08:18:47;;;;;;;64.40;40.00;;;;;;;;;;5016255;28;20201;-83
2024/03/05 08:21:15;;;;;;;60.13;38.63;;;;;;;;;;5018135;28;20937;-82
2024/03/05 08:23:42;;;;;;;61.00;38.08;;;;;;;;;;5018170;28;20495;-82
2024/03/05 08:26:09;;;;;;;58.13;36.67;;;;;;;;;;5018656;28;20656;-83
2024/03/05 08:28:36;;;;;;;57.13;35.83;;;;;;;;;;5019025;28;20202;-81
2024/03/05 08:31:03;;;;;;;60.47;36.80;;;;;;;;;;5018268;28;20468;-82
2024/03/05 08:33:32;;;;;;;57.97;37.17;;;;;;;;;;5013440;28;20485;-84
2024/03/05 08:36:00;;;;;;;61.33;36.10;;;;;;;;;;4999647;28;20424;-81
2024/03/05 08:38:27;;;;;;;52.80;36.42;;;;;;;;;;4999328;28;20248;-82
2024/03/05 08:40:54;;;;;;;57.07;37.03;;;;;;;;;;4998719;28;20214;-81
2024/03/05 08:43:21;;;;;;;54.90;36.03;;;;;;;;;;4998750;28;21007;-83
2024/03/05 08:45:48;;;;;;;46.10;34.63;;;;;;;;;;4999334;28;20885;-80
2024/03/05 08:48:15;;;;;;;52.60;36.30;;;;;;;;;;4998868;28;20486;-84
2024/03/05 08:50:43;;;;;;;54.70;36.57;;;;;;;;;;4998967;28;20488;-81
2024/03/05 08:53:11;;;;;;;51.30;37.43;;;;;;;;;;4999303;28;20926;-83
2024/03/05 08:55:38;;;;;;;54.17;35.27;;;;;;;;;;4998805;28;20461;-81
2024/03/05 08:58:06;;;;;;;52.60;37.33;;;;;;;;;;4999398;28;20453;-81
2024/03/05 09:00:33;;;;;;;52.17;36.15;;;;;;;;;;4999260;28;20427;-84
2024/03/05 09:03:01;;;;;;;54.73;36.97;;;;;;;;;;4997674;28;20214;-83
2024/03/05 09:05:28;;;;;;;49.10;35.00;;;;;;;;;;5014387;28;20488;-82
2024/03/05 09:07:55;;;;;;;48.80;35.67;;;;;;;;;;5017944;28;20518;-81
2024/03/05 09:10:23;;;;;;;46.87;35.13;;;;;;;;;;5018671;28;20510;-81
2024/03/05 09:12:51;;;;;;;53.43;37.20;;;;;;;;;;5017480;28;20502;-81
2024/03/05 09:15:18;;;;;;;50.87;37.07;;;;;;;;;;5017661;28;20450;-81
2024/03/05 09:17:46;;;;;;;50.77;36.27;;;;;;;;;;5017948;28;20415;-81
2024/03/05 09:20:16;;;;;;;46.57;33.57;;;;;;;;;;5017395;28;20658;-81
2024/03/05 09:22:44;;;;;;;48.63;35.03;;;;;;;;;;5016944;28;20526;-81
2024/03/05 09:25:12;;;;;;;53.57;37.13;;;;;;;;;;5017594;28;20472;-82
2024/03/05 09:27:42;;;;;;;46.67;34.97;;;;;;;;;;5018129;28;20487;-82
2024/03/05 09:30:09;;;;;;;46.40;36.23;;;;;;;;;;5017467;28;20457;-83
2024/03/05 09:32:36;;;;;;;43.93;35.93;;;;;;;;;;5018165;28;20451;-82
2024/03/05 09:35:08;;;;;;;40.80;33.83;;;;;;;;;;5005173;28;20493;-81
2024/03/05 09:37:35;;;;;;;49.90;36.87;;;;;;;;;;4999316;28;20451;-83
2024/03/05 09:40:02;;;;;;;45.20;34.77;;;;;;;;;;4998445;28;20523;-83
2024/03/05 09:42:31;;;;;;;41.77;33.70;;;;;;;;;;4997604;28;20441;-82
2024/03/05 09:45:05;;;;;;;44.50;33.77;;;;;;;;;;4998378;28;20487;-83
2024/03/05 09:47:35;;;;;;;38.10;31.20;;;;;;;;;;4998003;28;20464;-81
2024/03/05 09:50:03;;;;;;;44.13;34.83;;;;;;;;;;4997516;28;20474;-81
2024/03/05 09:52:30;;;;;;;48.20;34.30;;;;;;;;;;4997735;28;20496;-81
2024/03/05 09:54:57;;;;;;;48.93;34.77;;;;;;;;;;4997821;28;20469;-83
2024/03/05 09:57:24;;;;;;;47.93;36.10;;;;;;;;;;4998397;28;20449;-81
2024/03/05 09:59:51;;;;;;;47.37;34.53;;;;;;;;;;4998100;28;20916;-83
2024/03/05 10:02:22;;;;;;;44.17;33.27;;;;;;;;;;4997380;28;20504;-82
2024/03/05 10:04:49;;;;;;;45.43;36.00;;;;;;;;;;4997138;28;20524;-83
2024/03/05 10:07:25;;;;;;;45.23;32.20;;;;;;;;;;4998108;28;20547;-82
2024/03/05 10:10:03;;;;;;;45.20;35.63;;;;;;;;;;4997709;28;20416;-84
2024/03/05 10:12:30;;;;;;;46.10;35.13;;;;;;;;;;4997763;28;20433;-83
2024/03/05 10:15:11;;;;;;;45.83;33.03;;;;;;;;;;4996951;28;20485;-81
2024/03/05 10:17:43;;;;;;;38.87;31.73;;;;;;;;;;4997046;28;20489;-83
2024/03/05 10:20:10;;;;;;;41.13;32.90;;;;;;;;;;4997623;28;20444;-81
2024/03/05 10:22:37;;;;;;;42.10;33.10;;;;;;;;;;4997219;28;20445;-81
2024/03/05 10:25:14;;;;;;;40.57;32.70;;;;;;;;;;4996621;28;20493;-82
2024/03/05 10:27:46;;;;;;;39.07;30.20;;;;;;;;;;4997799;28;20876;-82
2024/03/05 10:30:21;;;;;;;40.63;34.90;;;;;;;;;;4997605;28;20416;-81
2024/03/05 10:32:53;;;;;;;40.77;32.27;;;;;;;;;;4996593;28;20507;-82
2024/03/05 10:35:20;;;;;;;42.80;33.20;;;;;;;;;;4996607;28;20475;-84
2024/03/05 10:37:56;;;;;;;39.37;35.20;;;;;;;;;;4997652;28;20450;-82
2024/03/05 10:40:24;;;;;;;40.87;34.33;;;;;;;;;;4997615;28;20453;-82
2024/03/05 10:42:52;;;;;;;34.57;30.73;;;;;;;;;;4996187;28;20461;-83
2024/03/05 10:45:21;;;;;;;42.43;34.80;;;;;;;;;;4995917;28;21061;-82
2024/03/05 10:47:49;;;;;;;38.10;33.53;;;;;;;;;;4996063;28;20485;-82
2024/03/05 10:50:19;;;;;;;42.17;34.93;;;;;;;;;;4996093;28;20457;-83
2024/03/05 10:52:47;;;;;;;39.57;34.90;;;;;;;;;;4995054;28;20503;-82
2024/03/05 10:55:16;;;;;;;43.80;35.20;;;;;;;;;;4995435;28;20501;-84
2024/03/05 11:00:25;;;;;;;45.07;35.70;;;;;;;;;;4996104;28;20481;-83
2024/03/05 11:02:52;;;;;;;44.63;37.73;;;;;;;;;;4995527;28;20453;-82
2024/03/05 11:05:21;;;;;;;47.47;38.07;;;;;;;;;;4995978;28;20445;-82
2024/03/05 11:07:48;;;;;;;44.40;35.90;;;;;;;;;;4995471;28;20540;-83
2024/03/05 11:10:16;;;;;;;56.90;40.50;;;;;;;;;;4995152;28;20516;-82
2024/03/05 11:12:43;;;;;;;46.63;35.83;;;;;;;;;;4995509;28;20503;-83
2024/03/05 11:15:13;;;;;;;45.67;36.57;;;;;;;;;;4995180;28;20542;-83
2024/03/05 11:17:40;;;;;;;47.00;37.60;;;;;;;;;;4994895;28;20470;-83
2024/03/05 11:20:11;;;;;;;47.93;36.13;;;;;;;;;;4996396;28;20457;-82
2024/03/05 11:22:43;;;;;;;39.67;34.30;;;;;;;;;;5014860;28;20426;-84
2024/03/05 11:25:30;;;;;;;40.17;33.90;;;;;;;;;;5015213;28;20580;-82
2024/03/05 11:27:58;;;;;;;38.07;33.70;;;;;;;;;;5014910;28;20675;-82
2024/03/05 11:30:28;;;;;;;42.20;36.20;;;;;;;;;;5016033;28;20453;-83
2024/03/05 11:32:56;;;;;;;39.23;34.33;;;;;;;;;;5015808;28;20456;-82
2024/03/05 11:35:23;;;;;;;45.87;35.93;;;;;;;;;;5016765;28;20448;-81
2024/03/05 11:37:53;;;;;;;43.20;34.73;;;;;;;;;;5015213;28;20472;-82
2024/03/05 11:40:22;;;;;;;43.53;35.23;;;;;;;;;;5016543;28;20432;-83
2024/03/05 11:42:49;;;;;;;40.10;33.60;;;;;;;;;;5015515;28;20448;-82
2024/03/05 11:45:31;;;;;;;46.13;34.60;;;;;;;;;;5015902;28;20472;-83
2024/03/05 11:47:58;;;;;;;39.00;32.90;;;;;;;;;;5007449;28;20903;-81
2024/03/05 11:50:25;;;;;;;47.13;35.60;;;;;;;;;;5016410;28;20453;-81
2024/03/05 11:52:54;;;;;;;41.40;36.10;;;;;;;;;;5016496;28;20448;-81
2024/03/05 11:55:25;;;;;;;39.97;34.13;;;;;;;;;;5017068;28;20456;-82
2024/03/05 11:57:56;;;;;;;47.70;36.20;;;;;;;;;;5015825;28;20452;-81
2024/03/05 12:00:26;;;;;;;43.37;35.00;;;;;;;;;;5016350;28;20475;-81
2024/03/05 12:02:53;;;;;;;42.07;34.00;;;;;;;;;;5015805;28;20492;-82
2024/03/05 12:05:20;;;;;;;45.73;35.73;;;;;;;;;;5012259;28;21351;-82
2024/03/05 12:07:59;;;;;;;41.97;34.77;;;;;;;;;;5012008;28;20503;-83
2024/03/05 12:10:28;;;;;;;48.40;35.67;;;;;;;;;;5001549;28;20544;-82
2024/03/05 12:12:55;;;;;;;40.97;33.93;;;;;;;;;;4996125;28;20499;-81
2024/03/05 12:15:23;;;;;;;43.90;35.47;;;;;;;;;;4996085;28;20946;-84
2024/03/05 12:17:50;;;;;;;41.67;34.93;;;;;;;;;;5012119;28;20445;-82
2024/03/05 12:20:20;;;;;;;41.27;33.93;;;;;;;;;;5013153;28;20449;-84
2024/03/05 12:22:50;;;;;;;43.50;33.40;;;;;;;;;;5015014;28;20539;-82
2024/03/05 12:25:19;;;;;;;47.53;34.77;;;;;;;;;;5012253;28;20999;-81
2024/03/05 12:27:49;;;;;;;45.53;34.30;;;;;;;;;;5012486;28;20496;-84
2024/03/05 12:30:16;;;;;;;41.93;33.97;;;;;;;;;;5009348;28;20462;-83
2024/03/05 12:32:45;;;;;;;42.87;33.60;;;;;;;;;;5007068;28;20530;-81
2024/03/05 12:35:14;;;;;;;46.93;37.80;;;;;;;;;;5011066;28;20563;-82
2024/03/05 12:37:41;;;;;;;43.17;36.03;;;;;;;;;;5016266;28;20552;-82
2024/03/05 12:40:14;;;;;;;47.63;36.57;;;;;;;;;;5005762;28;20445;-81
2024/03/05 12:42:44;;;;;;;45.60;35.97;;;;;;;;;;4995433;28;20469;-83
2024/03/05 12:45:14;;;;;;;44.57;36.57;;;;;;;;;;4996474;28;20515;-82
2024/03/05 12:47:41;;;;;;;45.50;36.43;;;;;;;;;;4996242;28;20485;-82
2024/03/05 12:50:11;;;;;;;47.77;36.40;;;;;;;;;;4995881;28;20460;-81
2024/03/05 12:52:38;;;;;;;44.07;35.23;;;;;;;;;;4995417;28;20481;-82
2024/03/05 12:55:07;;;;;;;49.27;36.63;;;;;;;;;;4995587;28;20532;-84
2024/03/05 12:57:34;;;;;;;43.67;35.53;;;;;;;;;;4996382;28;20446;-82
2024/03/05 13:00:05;;;;;;;47.27;36.27;;;;;;;;;;4996409;28;20481;-83
2024/03/05 13:02:32;;;;;;;42.30;35.60;;;;;;;;;;4996055;28;20464;-83
2024/03/05 13:05:02;;;;;;;45.63;36.60;;;;;;;;;;4997463;28;20516;-83
2024/03/05 13:07:30;;;;;;;42.50;34.20;;;;;;;;;;4999751;28;20473;-81
2024/03/05 13:09:59;;;;;;;41.00;34.17;;;;;;;;;;5003019;28;20491;-84
2024/03/05 13:12:26;;;;;;;49.03;37.97;;;;;;;;;;5017936;28;20818;-81
2024/03/05 13:14:53;;;;;;;51.17;37.73;;;;;;;;;;5019339;28;20556;-82
2024/03/05 13:17:21;;;;;;;54.20;40.23;;;;;;;;;;5018405;28;21219;-83
2024/03/05 13:19:48;;;;;;;52.33;39.37;;;;;;;;;;5018569;28;20460;-83
2024/03/05 13:22:16;;;;;;;55.07;39.73;;;;;;;;;;5018097;28;20461;-82
2024/03/05 13:24:43;;;;;;;48.30;38.00;;;;;;;;;;5018001;28;20456;-83
2024/03/05 13:27:10;;;;;;;50.10;37.60;;;;;;;;;;5019666;28;20478;-84
2024/03/05 13:29:37;;;;;;;57.03;38.80;;;;;;;;;;5018420;28;20494;-82
2024/03/05 13:32:04;;;;;;;56.50;42.50;;;;;;;;;;5018949;28;20453;-83
2024/03/05 13:34:33;;;;;;;63.03;42.90;;;;;;;;;;5015218;28;20984;-83
2024/03/05 13:37:00;;;;;;;50.43;39.70;;;;;;;;;;5018226;28;20855;-81
2024/03/05 13:39:26;;;;;;;59.17;40.73;;;;;;;;;;5018460;28;20452;-82
2024/03/05 13:41:53;;;;;;;59.20;39.10;;;;;;;;;;5017355;28;20452;-81
2024/03/05 13:44:24;;;;;;;55.43;40.70;;;;;;;;;;5017420;28;20477;-82
2024/03/05 13:46:51;;;;;;;58.40;39.50;;;;;;;;;;5018321;28;20999;-81
2024/03/05 13:49:19;;;;;;;59.37;37.97;;;;;;;;;;5018167;28;20452;-81
2024/03/05 13:51:47;;;;;;;56.63;38.23;;;;;;;;;;5017671;28;20988;-81
2024/03/05 13:54:14;;;;;;;46.13;34.90;;;;;;;;;;5017691;28;20484;-83
2024/03/05 13:56:42;;;;;;;46.33;35.00;;;;;;;;;;5017674;28;20448;-82
2024/03/05 13:59:10;;;;;;;44.67;35.20;;;;;;;;;;5018638;28;20457;-82
2024/03/05 14:01:38;;;;;;;48.80;37.00;;;;;;;;;;5017157;28;20456;-87
2024/03/05 14:04:09;;;;;;;45.63;36.37;;;;;;;;;;5015890;28;21234;-88
2024/03/05 14:06:37;;;;;;;45.00;35.93;;;;;;;;;;5016650;28;20552;-88
2024/03/05 14:09:08;;;;;;;49.60;36.40;;;;;;;;;;5016601;28;21184;-88
2024/03/05 14:11:36;;;;;;;41.53;34.67;;;;;;;;;;5015868;28;20463;-88
2024/03/05 14:14:03;;;;;;;44.27;33.30;;;;;;;;;;5015032;28;20484;-88
2024/03/05 14:16:30;;;;;;;45.43;35.23;;;;;;;;;;5016112;28;20507;-88
2024/03/05 14:18:58;;;;;;;38.90;32.30;;;;;;;;;;5022177;28;20891;-82
2024/03/05 14:21:29;;;;;;;33.83;30.43;;;;;;;;;;5022463;28;20479;-82
2024/03/05 14:23:57;;;;;;;33.63;29.90;;;;;;;;;;5022031;28;20488;-83
2024/03/05 14:26:25;;;;;;;34.53;30.73;;;;;;;;;;5021646;28;20460;-81